Time;durP1;ratioP1;P1;durP2;ratioP2;P2;SDS_P1;SDS_P2;PMS_P1;PMS_P2;Temp;Humidity;BMP_temperature;BMP_pressure;BME280_temperature;BME280_humidity;BME280_pressure;Samples;Min_cycle;Max_cycle;Signal;HPM_P1;HPM_P2
2022/05/20 00:01:48;;;;;;;12.25;5.28;;;17.90;73.60;;;;;;12665041;23;20181;-80
2022/05/20 00:06:51;;;;;;;12.93;3.65;;;17.80;73.00;;;;;;12681334;23;20571;-80
2022/05/20 00:11:54;;;;;;;7.47;3.58;;;17.70;74.70;;;;;;12677961;23;20220;-80
2022/05/20 00:17:01;;;;;;;4.28;3.88;;;18.00;74.10;;;;;;12694479;23;20177;-80
2022/05/20 00:22:05;;;;;;;7.07;3.90;;;17.40;75.10;;;;;;12651410;23;20181;-81
2022/05/20 00:27:08;;;;;;;1.98;1.75;;;17.70;75.00;;;;;;12673254;23;20189;-80
2022/05/20 00:32:10;;;;;;;3.63;2.00;;;17.90;75.40;;;;;;12671754;23;20552;-80
2022/05/20 00:37:13;;;;;;;5.30;4.03;;;18.20;73.80;;;;;;12673011;23;20196;-80
2022/05/20 00:42:18;;;;;;;6.65;4.15;;;17.80;74.70;;;;;;12690531;23;20236;-80
2022/05/20 00:47:20;;;;;;;7.40;4.22;;;17.60;75.10;;;;;;12669534;23;20201;-80
2022/05/20 00:52:28;;;;;;;6.95;4.78;;;16.90;77.80;;;;;;12647292;23;20204;-80
2022/05/20 00:57:36;;;;;;;6.20;4.05;;;16.50;78.20;;;;;;12689357;23;20632;-80
2022/05/20 01:02:40;;;;;;;5.53;4.28;;;16.60;80.40;;;;;;12663528;23;20205;-80
2022/05/20 01:07:44;;;;;;;11.45;5.43;;;16.60;80.90;;;;;;12675402;23;20189;-80
2022/05/20 01:12:48;;;;;;;6.28;4.70;;;16.30;82.50;;;;;;12676339;23;20192;-80
2022/05/20 01:17:53;;;;;;;9.73;5.32;;;16.10;85.00;;;;;;12649790;23;20177;-80
2022/05/20 01:23:01;;;;;;;8.93;5.35;;;16.20;84.10;;;;;;12692882;23;20239;-80
2022/05/20 01:28:04;;;;;;;9.18;4.93;;;15.90;88.10;;;;;;12648444;23;20204;-80
2022/05/20 01:33:07;;;;;;;7.47;5.40;;;15.80;89.70;;;;;;12686720;23;20224;-80
2022/05/20 01:38:11;;;;;;;5.97;3.67;;;15.50;90.80;;;;;;12674131;23;20232;-80
2022/05/20 01:43:41;;;;;;;4.30;3.20;;;15.50;91.50;;;;;;12668872;23;20212;-80
2022/05/20 01:49:07;;;;;;;8.43;4.47;;;15.20;93.50;;;;;;12670666;23;20185;-80
2022/05/20 01:54:16;;;;;;;6.90;4.32;;;15.80;91.30;;;;;;12662366;23;20166;-80
2022/05/20 01:59:28;;;;;;;9.45;5.35;;;15.50;92.70;;;;;;12687127;23;20173;-80
2022/05/20 02:04:43;;;;;;;6.43;3.17;;;16.10;91.20;;;;;;12675759;23;20228;-80
2022/05/20 02:09:54;;;;;;;7.75;4.97;;;16.50;88.00;;;;;;12634300;23;20176;-80
2022/05/20 02:15:04;;;;;;;9.95;5.53;;;16.10;90.80;;;;;;12677199;23;20221;-80
2022/05/20 02:20:28;;;;;;;4.95;4.45;;;16.20;90.30;;;;;;12672622;23;20224;-80
2022/05/20 02:25:36;;;;;;;5.13;3.28;;;16.10;91.00;;;;;;12670189;23;20213;-80
2022/05/20 02:30:40;;;;;;;2.63;2.15;;;16.20;90.40;;;;;;12687866;23;20691;-80
2022/05/20 02:35:44;;;;;;;5.60;4.60;;;16.20;90.30;;;;;;12669974;23;20671;-80
2022/05/20 02:40:53;;;;;;;4.03;2.95;;;16.40;89.40;;;;;;12661068;23;20177;-80
2022/05/20 02:45:55;;;;;;;11.75;6.63;;;16.50;90.00;;;;;;12686480;23;20192;-80
2022/05/20 02:50:58;;;;;;;7.72;5.47;;;15.30;94.70;;;;;;12669833;23;20168;-80
2022/05/20 02:56:03;;;;;;;6.13;4.97;;;15.40;95.40;;;;;;12670282;23;20232;-80
2022/05/20 03:06:32;;;;;;;4.97;3.92;;;16.30;91.10;;;;;;12687569;23;20185;-80
2022/05/20 03:11:35;;;;;;;16.25;5.63;;;16.30;91.60;;;;;;12650193;23;20166;-80
2022/05/20 03:16:38;;;;;;;9.18;5.72;;;16.10;93.10;;;;;;12669790;23;20207;-80
2022/05/20 03:21:42;;;;;;;8.00;5.20;;;16.00;93.80;;;;;;12669594;23;20169;-80
2022/05/20 03:26:46;;;;;;;7.95;4.13;;;16.00;94.70;;;;;;12642410;23;20754;-80
2022/05/20 03:31:49;;;;;;;2.13;1.80;;;16.20;92.90;;;;;;12671034;23;20174;-80
2022/05/20 03:36:51;;;;;;;1.90;1.77;;;17.90;84.80;;;;;;12546053;23;20573;-80
2022/05/20 03:41:55;;;;;;;1.95;1.65;;;19.20;78.40;;;;;;12538785;23;20603;-80
2022/05/20 03:46:58;;;;;;;2.58;2.05;;;19.50;76.00;;;;;;12549029;23;20226;-80
2022/05/20 03:52:01;;;;;;;1.70;1.60;;;19.90;74.10;;;;;;12543297;23;20370;-80
2022/05/20 03:57:05;;;;;;;2.03;1.70;;;20.50;72.00;;;;;;12546627;23;20178;-80
2022/05/20 04:02:11;;;;;;;2.30;1.77;;;20.60;70.80;;;;;;12545358;23;20186;-80
2022/05/20 04:07:18;;;;;;;2.08;1.88;;;20.80;70.30;;;;;;12630694;23;20197;-80
2022/05/20 04:12:34;;;;;;;2.30;1.95;;;21.00;69.40;;;;;;12646333;23;20280;-80
2022/05/20 04:17:37;;;;;;;1.98;1.55;;;20.90;69.10;;;;;;12686684;23;20173;-80
2022/05/20 04:22:39;;;;;;;2.30;1.60;;;21.10;68.60;;;;;;12672441;23;20169;-80
2022/05/20 04:27:42;;;;;;;2.13;1.88;;;21.10;68.20;;;;;;12688779;23;20251;-81
2022/05/20 04:32:44;;;;;;;2.08;1.80;;;21.20;68.00;;;;;;12670996;23;20173;-80
2022/05/20 04:37:47;;;;;;;2.05;1.85;;;21.20;67.80;;;;;;12688662;23;20560;-81
2022/05/20 04:48:11;;;;;;;2.42;2.22;;;21.30;67.40;;;;;;12667411;23;20201;-80
2022/05/20 04:54:49;;;;;;;2.95;1.75;;;21.30;67.30;;;;;;12669683;23;20166;-80
2022/05/20 04:58:38;;;;;;;2.08;1.77;;;21.30;67.30;;;;;;12669909;23;20185;-80
2022/05/20 05:03:40;;;;;;;2.30;2.10;;;21.20;67.50;;;;;;12669125;23;20177;-81
2022/05/20 05:08:42;;;;;;;2.63;1.90;;;21.40;67.30;;;;;;12669943;23;20193;-80
2022/05/20 05:13:45;;;;;;;2.15;1.95;;;21.40;67.40;;;;;;12670673;23;20224;-80
2022/05/20 05:18:47;;;;;;;4.43;2.05;;;21.40;67.50;;;;;;12644512;23;20189;-80
2022/05/20 05:23:50;;;;;;;5.20;2.90;;;21.50;68.00;;;;;;12668180;23;20200;-80
2022/05/20 05:28:52;;;;;;;4.95;2.88;;;21.40;70.80;;;;;;12669486;23;20193;-80
2022/05/20 05:33:56;;;;;;;4.97;3.08;;;21.30;72.10;;;;;;12668052;23;20243;-80
2022/05/20 05:38:59;;;;;;;6.32;4.07;;;21.20;72.10;;;;;;12643661;23;20568;-81
2022/05/20 05:44:01;;;;;;;4.60;3.40;;;21.30;74.30;;;;;;12670623;23;20176;-79
2022/05/20 05:49:04;;;;;;;5.03;3.90;;;21.20;74.80;;;;;;12669879;23;20264;-80
2022/05/20 05:54:07;;;;;;;4.72;3.55;;;21.10;76.50;;;;;;12642903;23;20499;-80
2022/05/20 05:59:10;;;;;;;5.57;3.28;;;21.30;73.90;;;;;;12669324;23;20197;-81
2022/05/20 06:04:13;;;;;;;3.88;2.55;;;21.40;74.10;;;;;;12669375;23;20617;-80
2022/05/20 06:09:15;;;;;;;3.88;3.50;;;21.40;73.80;;;;;;12644246;23;20244;-81
2022/05/20 06:14:17;;;;;;;4.47;3.45;;;21.30;74.70;;;;;;12669010;23;20319;-81
2022/05/20 06:19:20;;;;;;;3.92;3.22;;;21.40;77.20;;;;;;12643047;23;20172;-81
2022/05/20 06:24:22;;;;;;;3.70;3.25;;;21.40;74.90;;;;;;12643226;23;20212;-81
2022/05/20 06:29:25;;;;;;;5.30;3.10;;;21.60;73.90;;;;;;12668578;23;20192;-81
2022/05/20 06:39:48;;;;;;;7.80;3.47;;;21.60;74.80;;;;;;12645226;23;20173;-81
2022/05/20 06:39:50;;;;;;;3.85;2.88;;;21.80;73.90;;;;;;12670069;23;20218;-81
2022/05/20 06:44:52;;;;;;;6.88;3.05;;;21.90;73.30;;;;;;12631677;23;20570;-81
2022/05/20 06:49:55;;;;;;;4.03;3.58;;;22.00;72.80;;;;;;12664992;23;20189;-81
2022/05/20 06:54:57;;;;;;;4.20;2.90;;;21.90;74.90;;;;;;12640876;23;20177;-81
2022/05/20 07:00:03;;;;;;;3.78;3.25;;;22.00;73.50;;;;;;12640879;23;20224;-81
2022/05/20 07:05:06;;;;;;;5.47;4.03;;;22.10;78.20;;;;;;12667623;23;20637;-81
2022/05/20 07:10:11;;;;;;;2.92;2.72;;;22.00;90.40;;;;;;12638072;23;20205;-81
2022/05/20 07:15:13;;;;;;;4.70;3.15;;;22.20;73.80;;;;;;12644501;23;20267;-80
2022/05/20 07:20:16;;;;;;;3.15;2.70;;;22.20;75.90;;;;;;12646289;23;20173;-81
2022/05/20 07:25:19;;;;;;;7.50;3.10;;;22.20;73.40;;;;;;12668917;23;20197;-81
2022/05/20 07:30:22;;;;;;;4.47;2.85;;;22.10;74.50;;;;;;12669816;23;20193;-81
2022/05/20 07:35:24;;;;;;;3.67;3.17;;;22.10;73.90;;;;;;12644365;23;20225;-80
2022/05/20 07:40:27;;;;;;;11.50;3.70;;;22.20;74.40;;;;;;12667478;23;20185;-85
2022/05/20 07:45:29;;;;;;;5.68;3.85;;;21.90;82.80;;;;;;12670148;23;20636;-82
2022/05/20 07:50:38;;;;;;;18.25;4.60;;;22.10;78.50;;;;;;12667162;23;20849;-81
2022/05/20 07:55:45;;;;;;;6.10;3.67;;;22.00;91.20;;;;;;12661107;23;20220;-81
2022/05/20 08:00:47;;;;;;;8.75;4.85;;;22.00;83.60;;;;;;12637743;23;20189;-82
2022/05/20 08:05:49;;;;;;;4.10;3.13;;;22.00;94.40;;;;;;12641086;23;20260;-81
2022/05/20 08:10:52;;;;;;;5.03;3.05;;;22.00;79.80;;;;;;12640668;23;20248;-81
2022/05/20 08:15:54;;;;;;;4.72;2.90;;;22.00;78.90;;;;;;12640995;23;20197;-81
2022/05/20 08:20:58;;;;;;;4.72;3.42;;;22.10;79.10;;;;;;12668236;23;20204;-81
2022/05/20 08:26:01;;;;;;;4.65;4.15;;;22.10;79.20;;;;;;12686401;23;20169;-81
2022/05/20 08:31:03;;;;;;;6.15;3.97;;;22.10;79.20;;;;;;12653017;23;20252;-81
2022/05/20 08:36:06;;;;;;;3.80;3.50;;;22.20;88.90;;;;;;12667829;23;20256;-81
2022/05/20 08:41:17;;;;;;;5.20;3.22;;;22.10;78.60;;;;;;12687133;23;20556;-81
2022/05/20 08:46:22;;;;;;;5.22;3.15;;;22.20;84.60;;;;;;12689179;23;20169;-84
2022/05/20 08:51:30;;;;;;;6.15;5.53;;;22.20;83.00;;;;;;12671154;23;20518;-92
2022/05/20 08:56:36;;;;;;;10.50;5.47;;;22.10;93.50;;;;;;12648051;23;20181;-92
2022/05/20 09:01:49;;;;;;;18.02;6.13;;;21.90;93.30;;;;;;12669315;23;20177;-92
2022/05/20 09:07:11;;;;;;;7.70;5.40;;;21.90;93.10;;;;;;12662726;23;20185;-91
2022/05/20 09:12:36;;;;;;;7.95;5.05;;;21.90;92.70;;;;;;12662384;23;20197;-92
2022/05/20 09:17:46;;;;;;;7.28;6.07;;;21.90;92.50;;;;;;12647504;23;20189;-92
2022/05/20 09:22:59;;;;;;;9.75;6.40;;;21.90;92.10;;;;;;12648004;23;20201;-92
2022/05/20 09:28:33;;;;;;;8.45;5.22;;;21.80;91.90;;;;;;12663909;23;20189;-93
2022/05/20 09:33:36;;;;;;;6.05;5.45;;;22.00;91.20;;;;;;12649499;23;20576;-92
2022/05/20 09:38:41;;;;;;;8.20;6.47;;;22.00;91.60;;;;;;12636822;23;20243;-92
2022/05/20 09:43:59;;;;;;;8.93;5.25;;;21.90;91.30;;;;;;12646770;23;20577;-92
2022/05/20 09:49:13;;;;;;;6.72;5.53;;;21.90;90.80;;;;;;12657795;23;20216;-93
2022/05/20 09:54:27;;;;;;;8.13;6.05;;;21.90;90.30;;;;;;12647467;23;20252;-92
2022/05/20 09:59:39;;;;;;;6.72;5.88;;;21.90;90.10;;;;;;12647000;23;20243;-92
2022/05/20 10:04:58;;;;;;;6.20;5.60;;;21.80;90.00;;;;;;12646482;23;20189;-92
2022/05/20 10:10:13;;;;;;;12.68;5.45;;;;;;;;;;12639811;23;20196;-79
2022/05/20 10:15:19;;;;;;;13.18;5.60;;;;;;;;;;12665279;23;20204;-79
2022/05/20 10:20:28;;;;;;;13.18;5.65;;;25.00;99.90;;;;;;12637925;23;20707;-79
2022/05/20 10:25:41;;;;;;;14.25;4.68;;;24.40;81.40;;;;;;12682534;23;20169;-79
2022/05/20 10:36:24;;;;;;;8.73;4.55;;;;;;;;;;12666900;23;20197;-79
2022/05/20 10:41:39;;;;;;;8.40;4.32;;;25.90;74.50;;;;;;12656666;23;20619;-79
2022/05/20 10:52:35;;;;;;;6.75;4.22;;;26.10;73.40;;;;;;12665359;23;20711;-79
2022/05/20 10:57:56;;;;;;;8.43;4.22;;;26.20;72.40;;;;;;12664838;23;20620;-79
2022/05/20 11:03:39;;;;;;;5.82;4.00;;;26.10;72.10;;;;;;12653308;23;20515;-79
2022/05/20 11:09:03;;;;;;;9.90;4.18;;;25.70;72.80;;;;;;12645356;23;20196;-79
2022/05/20 11:14:11;;;;;;;4.53;3.15;;;25.60;72.70;;;;;;12676192;23;20584;-79
2022/05/20 11:19:23;;;;;;;6.70;3.92;;;25.80;72.10;;;;;;12675833;23;20511;-79
2022/05/20 11:24:36;;;;;;;5.68;4.18;;;25.90;71.70;;;;;;12682049;23;20798;-79
2022/05/20 11:29:56;;;;;;;9.63;3.80;;;25.90;71.60;;;;;;12682188;23;20193;-79
2022/05/20 11:35:17;;;;;;;4.60;3.20;;;25.60;71.80;;;;;;12645530;23;20173;-79
2022/05/20 11:40:25;;;;;;;8.05;4.00;;;25.70;71.50;;;;;;12648045;23;20228;-78
2022/05/20 11:45:36;;;;;;;5.10;3.83;;;25.00;72.40;;;;;;12664714;23;20177;-79
2022/05/20 11:50:48;;;;;;;5.30;3.50;;;25.50;72.00;;;;;;12664977;23;20189;-79
2022/05/20 11:56:06;;;;;;;8.73;4.15;;;25.40;71.90;;;;;;12659287;23;20169;-79
2022/05/20 12:01:09;;;;;;;4.35;3.72;;;25.30;72.50;;;;;;12683555;23;20228;-79
2022/05/20 12:06:12;;;;;;;5.10;3.30;;;25.00;72.60;;;;;;12638322;23;20255;-79
2022/05/20 12:11:31;;;;;;;5.22;3.60;;;25.40;71.70;;;;;;12659478;23;20509;-79
2022/05/20 12:16:54;;;;;;;5.28;3.95;;;25.50;71.30;;;;;;12656347;23;20197;-79
2022/05/20 12:27:24;;;;;;;4.13;3.08;;;25.40;71.00;;;;;;12683478;23;20177;-79
2022/05/20 12:32:36;;;;;;;3.45;3.15;;;25.50;70.70;;;;;;12666238;23;20199;-79
2022/05/20 12:37:41;;;;;;;3.03;2.72;;;25.40;70.60;;;;;;12640648;23;20173;-79
2022/05/20 12:42:56;;;;;;;4.18;3.78;;;25.40;70.60;;;;;;12666269;23;20173;-79
2022/05/20 12:47:59;;;;;;;3.22;2.55;;;25.40;70.50;;;;;;12681646;23;20236;-79
2022/05/20 12:58:39;;;;;;;3.35;3.05;;;25.20;70.60;;;;;;12704208;23;20263;-79
2022/05/20 13:03:45;;;;;;;3.63;3.08;;;25.20;70.40;;;;;;12726214;23;20523;-79
2022/05/20 13:08:51;;;;;;;3.17;2.83;;;25.20;69.90;;;;;;12746631;23;20530;-79
2022/05/20 13:13:58;;;;;;;12.32;4.13;;;25.00;70.20;;;;;;12729669;23;20169;-79
2022/05/20 13:19:08;;;;;;;6.88;4.13;;;25.40;67.20;;;;;;12702352;23;20642;-90
2022/05/20 13:24:24;;;;;;;4.47;4.07;;;25.00;67.40;;;;;;12703632;23;20184;-89
2022/05/20 13:29:26;;;;;;;4.97;3.92;;;24.70;67.40;;;;;;12728059;23;20674;-89
2022/05/20 13:34:31;;;;;;;7.82;4.15;;;24.50;68.40;;;;;;12730881;23;20699;-89
2022/05/20 13:39:34;;;;;;;6.68;3.58;;;24.10;69.20;;;;;;12691192;23;20184;-89
2022/05/20 13:44:43;;;;;;;6.43;4.00;;;24.20;69.20;;;;;;12703739;23;20232;-89
2022/05/20 13:49:47;;;;;;;4.45;3.45;;;24.50;68.40;;;;;;12720893;23;20245;-89
2022/05/20 13:54:55;;;;;;;4.15;3.42;;;24.10;69.40;;;;;;12720648;23;20813;-89
2022/05/20 14:00:00;;;;;;;7.60;4.47;;;24.00;69.80;;;;;;12746061;23;20165;-89
2022/05/20 14:05:25;;;;;;;5.95;4.60;;;23.80;70.20;;;;;;12749834;23;20226;-89
2022/05/20 14:10:28;;;;;;;5.72;4.10;;;24.00;69.70;;;;;;12719644;23;20215;-89
2022/05/20 14:15:49;;;;;;;4.20;3.72;;;24.50;68.40;;;;;;12702294;23;20267;-89
2022/05/20 14:20:58;;;;;;;5.00;4.20;;;24.30;68.90;;;;;;12704037;23;20725;-89
2022/05/20 14:26:09;;;;;;;6.28;3.92;;;24.60;67.90;;;;;;12717525;23;20172;-89
2022/05/20 14:31:46;;;;;;;5.82;3.92;;;24.20;68.60;;;;;;12702808;23;20259;-90
2022/05/20 14:36:49;;;;;;;8.98;3.80;;;24.00;69.00;;;;;;12694624;23;20168;-89
2022/05/20 14:42:27;;;;;;;6.80;4.13;;;24.30;65.90;;;;;;12703391;23;20176;-89
2022/05/20 14:47:37;;;;;;;4.47;4.00;;;24.70;67.00;;;;;;12541748;23;20250;-89
2022/05/20 14:52:48;;;;;;;7.95;4.32;;;24.10;68.60;;;;;;12521469;23;20174;-89
2022/05/20 14:58:05;;;;;;;3.72;3.42;;;24.20;68.40;;;;;;12517296;23;20206;-88
2022/05/20 15:03:08;;;;;;;5.95;4.20;;;23.80;69.20;;;;;;12543027;23;20561;-89
2022/05/20 15:08:12;;;;;;;6.63;4.10;;;23.50;69.80;;;;;;12542291;23;20534;-89
2022/05/20 15:13:15;;;;;;;4.60;3.92;;;23.60;69.30;;;;;;12517195;23;20744;-89
2022/05/20 15:18:18;;;;;;;4.22;3.83;;;23.60;69.60;;;;;;12542140;23;20182;-89
2022/05/20 15:23:34;;;;;;;3.65;3.35;;;23.60;69.40;;;;;;12621357;23;20188;-89
2022/05/20 15:28:49;;;;;;;6.93;4.35;;;23.70;69.10;;;;;;12705299;23;20671;-89
2022/05/20 15:39:22;;;;;;;4.47;3.65;;;23.60;69.20;;;;;;12749160;23;20168;-90
2022/05/20 15:44:26;;;;;;;5.97;3.60;;;23.40;69.40;;;;;;12730211;23;20184;-90
2022/05/20 15:49:31;;;;;;;4.30;3.90;;;23.30;69.20;;;;;;12705792;23;20687;-89
2022/05/20 15:54:36;;;;;;;5.32;3.42;;;23.30;67.70;;;;;;12722953;23;20255;-90
2022/05/20 15:59:41;;;;;;;4.35;3.95;;;23.50;63.60;;;;;;12729063;23;20239;-90
2022/05/20 16:04:46;;;;;;;4.88;4.03;;;23.70;67.90;;;;;;12706772;23;20235;-90
2022/05/20 16:09:49;;;;;;;5.03;3.22;;;23.20;69.10;;;;;;12731935;23;20188;-91
2022/05/20 16:14:51;;;;;;;19.70;4.97;;;23.10;66.50;;;;;;12747353;23;20220;-82
2022/05/20 16:19:54;;;;;;;12.50;3.20;;;23.30;67.80;;;;;;12732053;23;20172;-81
2022/05/20 16:24:57;;;;;;;10.15;3.63;;;24.00;63.40;;;;;;12706000;23;20240;-82
2022/05/20 16:29:59;;;;;;;14.90;3.75;;;24.50;63.30;;;;;;12730413;23;20587;-82
2022/05/20 16:35:03;;;;;;;10.38;3.50;;;25.10;62.10;;;;;;12704234;23;21042;-82
2022/05/20 16:40:09;;;;;;;8.25;3.40;;;25.50;62.10;;;;;;12730985;23;20239;-81
2022/05/20 16:45:12;;;;;;;14.93;4.75;;;;;;;;;;12728001;23;20172;-81
2022/05/20 16:50:16;;;;;;;6.68;4.03;;;25.00;71.70;;;;;;12697351;23;20196;-81
2022/05/20 16:55:19;;;;;;;7.47;3.58;;;26.10;62.30;;;;;;12722383;23;20196;-82
2022/05/20 17:05:43;;;;;;;7.00;3.90;;;26.30;62.10;;;;;;12742945;23;20176;-82
2022/05/20 17:10:48;;;;;;;5.88;3.60;;;26.30;62.10;;;;;;12698526;23;20220;-81
2022/05/20 17:15:51;;;;;;;4.43;3.50;;;26.10;62.50;;;;;;12725162;23;20200;-81
2022/05/20 17:20:53;;;;;;;3.38;3.05;;;26.20;62.40;;;;;;12724147;23;20555;-82
2022/05/20 17:26:01;;;;;;;6.72;3.30;;;26.10;62.60;;;;;;12698650;23;20172;-81
2022/05/20 17:31:03;;;;;;;3.53;2.97;;;26.10;62.80;;;;;;12742044;23;20193;-82
2022/05/20 17:36:06;;;;;;;4.32;3.60;;;26.00;62.90;;;;;;12698723;23;20504;-82
2022/05/20 17:41:09;;;;;;;3.35;2.90;;;25.90;63.00;;;;;;12725362;23;20531;-81
2022/05/20 17:46:12;;;;;;;3.85;2.80;;;25.90;63.40;;;;;;12725165;23;20172;-82
2022/05/20 17:51:14;;;;;;;3.45;3.15;;;25.80;63.40;;;;;;12723241;23;20188;-82
2022/05/20 17:56:17;;;;;;;4.63;2.60;;;25.80;63.40;;;;;;12695408;23;20252;-81
2022/05/20 18:01:20;;;;;;;3.30;2.60;;;25.70;63.80;;;;;;12667925;23;20635;-82
2022/05/20 18:06:22;;;;;;;3.40;3.03;;;25.50;64.20;;;;;;12663361;23;20260;-81
2022/05/20 18:11:25;;;;;;;4.15;3.20;;;25.30;64.60;;;;;;12666416;23;20248;-82
2022/05/20 18:16:27;;;;;;;4.18;2.38;;;25.00;65.10;;;;;;12664686;23;20197;-82
2022/05/20 18:21:30;;;;;;;3.08;2.78;;;24.90;65.60;;;;;;12666218;23;20224;-82
2022/05/20 18:26:36;;;;;;;4.25;3.25;;;24.70;66.00;;;;;;12653194;23;20225;-82
2022/05/20 18:31:38;;;;;;;7.22;4.57;;;24.60;66.30;;;;;;12629944;23;20201;-82
2022/05/20 18:42:02;;;;;;;4.35;3.53;;;23.80;70.50;;;;;;12678985;23;20177;-82
2022/05/20 18:47:04;;;;;;;3.55;2.70;;;23.40;70.70;;;;;;12667990;23;20169;-83
2022/05/20 18:52:07;;;;;;;5.43;2.72;;;23.50;70.00;;;;;;12669054;23;20527;-82
2022/05/20 18:57:10;;;;;;;14.70;6.07;;;23.40;70.20;;;;;;12703537;23;20197;-82
2022/05/20 19:02:15;;;;;;;3.72;3.42;;;22.90;75.40;;;;;;12703193;23;20184;-82
2022/05/20 19:07:18;;;;;;;11.45;3.97;;;22.90;72.40;;;;;;12730148;23;20528;-82
2022/05/20 19:12:21;;;;;;;3.25;2.97;;;23.00;72.00;;;;;;12724815;23;20188;-83
2022/05/20 19:17:23;;;;;;;3.38;2.83;;;22.50;74.00;;;;;;12698511;23;20215;-82
2022/05/20 19:22:25;;;;;;;28.67;9.45;;;22.50;74.00;;;;;;12724334;23;20172;-83
2022/05/20 19:27:28;;;;;;;32.28;10.02;;;22.50;79.20;;;;;;12697786;23;20243;-82
2022/05/20 19:32:31;;;;;;;39.03;9.30;;;21.30;85.00;;;;;;12726073;23;20583;-82
2022/05/20 19:37:34;;;;;;;2.90;2.70;;;21.10;85.50;;;;;;12701603;23;20184;-82
2022/05/20 19:42:36;;;;;;;2.78;2.13;;;21.00;82.30;;;;;;12734840;23;20176;-83
2022/05/20 19:47:40;;;;;;;2.85;2.60;;;22.00;78.60;;;;;;12700250;23;20634;-83
2022/05/20 19:52:42;;;;;;;3.55;2.92;;;22.30;76.90;;;;;;12729566;23;20192;-82
2022/05/20 20:03:09;;;;;;;12.82;5.18;;;22.20;78.10;;;;;;12704046;23;20184;-82
2022/05/20 20:08:13;;;;;;;22.33;9.95;;;21.70;80.20;;;;;;12743182;23;20219;-82
2022/05/20 20:13:19;;;;;;;3.05;2.72;;;21.10;90.60;;;;;;12730946;23;20223;-82
2022/05/20 20:18:22;;;;;;;3.80;3.40;;;21.10;83.70;;;;;;12731115;23;20168;-82
2022/05/20 20:28:48;;;;;;;4.03;3.40;;;21.50;87.10;;;;;;12734922;23;20219;-83
2022/05/20 20:33:51;;;;;;;5.32;3.65;;;21.60;81.00;;;;;;12720859;23;20188;-84
2022/05/20 20:38:55;;;;;;;2.28;2.08;;;21.90;79.60;;;;;;12732084;23;20184;-84
2022/05/20 20:44:01;;;;;;;13.77;6.68;;;22.00;79.20;;;;;;12734403;23;20508;-84
2022/05/20 20:49:06;;;;;;;3.10;2.45;;;22.00;82.00;;;;;;12722235;23;20181;-84
2022/05/20 20:54:09;;;;;;;2.88;2.58;;;22.40;77.90;;;;;;12730527;23;20168;-84
2022/05/20 20:59:15;;;;;;;2.70;2.50;;;23.00;76.20;;;;;;12644257;23;20286;-85
2022/05/20 21:04:18;;;;;;;3.13;2.63;;;23.70;74.10;;;;;;12670206;23;20196;-84
2022/05/20 21:09:20;;;;;;;4.75;2.97;;;23.40;74.40;;;;;;12642991;23;20723;-84
2022/05/20 21:14:23;;;;;;;5.50;4.65;;;23.10;77.30;;;;;;12668106;23;20405;-84
2022/05/20 21:19:26;;;;;;;8.05;4.30;;;22.70;79.60;;;;;;12669912;23;20165;-85
2022/05/20 21:24:30;;;;;;;4.93;3.60;;;23.00;79.40;;;;;;12669471;23;20556;-83
2022/05/20 21:29:33;;;;;;;17.08;9.90;;;22.60;79.00;;;;;;12668691;23;20185;-83
2022/05/20 21:34:37;;;;;;;10.45;9.35;;;21.10;99.90;;;;;;12657656;23;20212;-83
2022/05/20 21:39:39;;;;;;;7.43;5.25;;;19.60;99.90;;;;;;12669061;23;20240;-83
2022/05/20 21:44:42;;;;;;;13.27;9.15;;;19.40;99.90;;;;;;12668935;23;20228;-83
2022/05/20 21:49:44;;;;;;;8.68;5.53;;;19.40;99.90;;;;;;12643960;23;20260;-83
2022/05/20 21:54:46;;;;;;;17.52;10.27;;;19.50;99.90;;;;;;12668601;23;20201;-83
2022/05/20 21:59:49;;;;;;;13.02;10.52;;;19.00;99.90;;;;;;12634232;23;20241;-82
2022/05/20 22:10:13;;;;;;;6.35;3.92;;;19.30;99.90;;;;;;12663285;23;20666;-83
2022/05/20 22:15:22;;;;;;;13.60;10.70;;;19.70;99.90;;;;;;12686666;23;20694;-83
2022/05/20 22:20:26;;;;;;;8.00;5.10;;;19.90;99.90;;;;;;12669109;23;20177;-83
2022/05/20 22:25:28;;;;;;;4.10;3.67;;;20.00;99.90;;;;;;12668991;23;20177;-83
2022/05/20 22:30:51;;;;;;;6.47;5.20;;;20.70;99.60;;;;;;12667201;23;20188;-83
2022/05/20 22:35:53;;;;;;;15.25;9.95;;;20.30;99.90;;;;;;12658811;23;20220;-83
2022/05/20 22:40:56;;;;;;;9.85;7.97;;;20.20;99.90;;;;;;12668708;23;20228;-83
2022/05/20 22:45:58;;;;;;;16.23;11.45;;;19.20;99.90;;;;;;12668386;23;20197;-83
2022/05/20 22:51:01;;;;;;;4.07;3.67;;;19.50;99.90;;;;;;12635624;23;20240;-83
2022/05/20 22:56:09;;;;;;;4.25;3.20;;;20.50;99.90;;;;;;12668685;23;20436;-83
2022/05/20 23:01:17;;;;;;;3.45;3.13;;;21.60;97.60;;;;;;12638855;23;20239;-83
2022/05/20 23:06:21;;;;;;;3.65;3.28;;;21.90;96.30;;;;;;12685370;23;20173;-83
2022/05/20 23:11:26;;;;;;;6.90;4.85;;;22.00;95.50;;;;;;12668171;23;20577;-83
2022/05/20 23:16:28;;;;;;;5.70;3.30;;;22.10;94.60;;;;;;12669036;23;20169;-83
2022/05/20 23:21:31;;;;;;;6.53;5.93;;;21.80;95.20;;;;;;12666383;23;20512;-83
2022/05/20 23:26:33;;;;;;;10.05;9.13;;;21.40;99.90;;;;;;12668310;23;20226;-83
2022/05/20 23:31:35;;;;;;;5.30;4.47;;;20.60;99.90;;;;;;12668969;23;20193;-83
2022/05/20 23:36:38;;;;;;;6.38;4.35;;;20.80;99.90;;;;;;12669138;23;20561;-83
2022/05/20 23:41:42;;;;;;;4.25;3.75;;;20.70;99.90;;;;;;12632521;23;20189;-83
2022/05/20 23:46:45;;;;;;;10.52;9.27;;;21.00;99.90;;;;;;12670717;23;20173;-83
2022/05/20 23:51:49;;;;;;;3.78;3.42;;;20.90;99.90;;;;;;12662175;23;20251;-83
2022/05/20 23:57:07;;;;;;;9.52;8.57;;;20.70;99.90;;;;;;12671750;23;20201;-83
